createdAt,value
2022-12-29T00:00:56.346Z,10.40
2022-12-29T00:02:01.442Z,10.40
2022-12-29T00:03:04.818Z,10.40
2022-12-29T00:04:14.442Z,10.40
2022-12-29T00:05:17.804Z,10.40
2022-12-29T00:06:21.400Z,10.40
2022-12-29T00:07:25.137Z,10.40
2022-12-29T00:08:40.822Z,10.40
2022-12-29T00:09:44.594Z,10.40
2022-12-29T00:10:47.278Z,10.40
2022-12-29T00:11:51.658Z,10.40
2022-12-29T00:13:12.754Z,10.40
2022-12-29T00:14:33.897Z,10.50
2022-12-29T00:15:40.737Z,10.50
2022-12-29T00:16:47.199Z,10.50
2022-12-29T00:17:51.246Z,10.50
2022-12-29T00:18:55.136Z,10.50
2022-12-29T00:20:16.274Z,10.50
2022-12-29T00:21:41.779Z,10.50
2022-12-29T00:23:03.102Z,10.50
2022-12-29T00:24:25.746Z,10.50
2022-12-29T00:25:46.889Z,10.50
2022-12-29T00:27:12.950Z,10.50
2022-12-29T00:28:34.447Z,10.50
2022-12-29T00:29:55.617Z,10.50
2022-12-29T00:31:27.642Z,10.60
2022-12-29T00:32:48.744Z,10.60
2022-12-29T00:34:11.089Z,10.60
2022-12-29T00:35:23.895Z,10.60
2022-12-29T00:36:31.876Z,10.60
2022-12-29T00:37:49.932Z,10.60
2022-12-29T00:39:15.304Z,10.60
2022-12-29T00:40:50.858Z,10.60
2022-12-29T00:42:11.923Z,10.60
2022-12-29T00:43:33.244Z,10.60
2022-12-29T00:44:37.018Z,10.60
2022-12-29T00:45:42.061Z,10.60
2022-12-29T00:46:45.873Z,10.60
2022-12-29T00:47:48.540Z,10.60
2022-12-29T00:49:10.986Z,10.60
2022-12-29T00:50:14.576Z,10.60
2022-12-29T00:51:17.094Z,10.60
2022-12-29T00:52:21.641Z,10.60
2022-12-29T00:53:24.351Z,10.60
2022-12-29T00:54:28.709Z,10.60
2022-12-29T00:55:31.271Z,10.60
2022-12-29T00:56:34.949Z,10.60
2022-12-29T00:57:38.542Z,10.60
2022-12-29T00:58:41.318Z,10.60
2022-12-29T00:59:46.336Z,10.70
2022-12-29T01:00:48.921Z,10.70
2022-12-29T01:01:53.691Z,10.70
2022-12-29T01:02:56.618Z,10.70
2022-12-29T01:04:04.281Z,10.60
2022-12-29T01:05:08.834Z,10.60
2022-12-29T01:06:12.395Z,10.60
2022-12-29T01:07:15.987Z,10.60
2022-12-29T01:08:20.751Z,10.60
2022-12-29T01:09:42.149Z,10.60
2022-12-29T01:10:46.343Z,10.50
2022-12-29T01:11:49.014Z,10.50
2022-12-29T01:12:52.599Z,10.50
2022-12-29T01:13:55.133Z,10.50
2022-12-29T01:14:58.667Z,10.50
2022-12-29T01:16:01.415Z,10.50
2022-12-29T01:17:05.880Z,10.40
2022-12-29T01:18:09.034Z,10.40
2022-12-29T01:19:14.624Z,10.40
2022-12-29T01:20:17.419Z,10.40
2022-12-29T01:21:21.817Z,10.40
2022-12-29T01:22:27.793Z,10.40
2022-12-29T01:23:32.734Z,10.40
2022-12-29T01:24:36.343Z,10.30
2022-12-29T01:25:39.057Z,10.30
2022-12-29T01:26:42.753Z,10.30
2022-12-29T01:27:45.361Z,10.30
2022-12-29T01:28:49.666Z,10.30
2022-12-29T01:29:52.301Z,10.30
2022-12-29T01:30:55.886Z,10.30
2022-12-29T01:31:58.489Z,10.30
2022-12-29T01:33:02.562Z,10.30
2022-12-29T01:34:05.962Z,10.20
2022-12-29T01:35:11.865Z,10.20
2022-12-29T01:36:17.932Z,10.20
2022-12-29T01:37:21.648Z,10.20
2022-12-29T01:38:24.186Z,10.20
2022-12-29T01:39:27.897Z,10.20
2022-12-29T01:40:30.769Z,10.20
2022-12-29T01:41:34.478Z,10.20
2022-12-29T01:43:45.215Z,10.20
2022-12-29T01:44:55.632Z,10.20
2022-12-29T01:45:59.885Z,10.20
2022-12-29T01:47:02.647Z,10.20
2022-12-29T01:48:10.943Z,10.20
2022-12-29T01:49:19.504Z,10.20
2022-12-29T01:50:31.369Z,10.20
2022-12-29T01:51:38.046Z,10.20
2022-12-29T01:52:49.678Z,10.30
2022-12-29T01:53:53.402Z,10.30
2022-12-29T01:54:59.429Z,10.30
2022-12-29T01:56:08.774Z,10.30
2022-12-29T01:57:16.778Z,10.30
2022-12-29T01:58:25.251Z,10.30
2022-12-29T01:59:33.630Z,10.30
2022-12-29T02:00:37.381Z,10.30
2022-12-29T02:01:41.111Z,10.30
2022-12-29T02:02:47.432Z,10.30
2022-12-29T02:03:52.441Z,10.30
2022-12-29T02:05:04.155Z,10.30
2022-12-29T02:06:15.211Z,10.30
2022-12-29T02:07:21.460Z,10.30
2022-12-29T02:08:29.309Z,10.30
2022-12-29T02:09:32.118Z,10.30
2022-12-29T02:10:37.307Z,10.30
2022-12-29T02:11:40.691Z,10.30
2022-12-29T02:12:44.424Z,10.30
2022-12-29T02:13:47.075Z,10.30
2022-12-29T02:14:58.635Z,10.30
2022-12-29T02:16:15.903Z,10.30
2022-12-29T02:17:32.751Z,10.30
2022-12-29T02:18:51.643Z,10.30
2022-12-29T02:20:19.271Z,10.30
2022-12-29T02:21:58.612Z,10.40
2022-12-29T02:23:31.470Z,10.40
2022-12-29T02:25:53.097Z,10.40
2022-12-29T02:27:49.564Z,10.40
2022-12-29T02:29:30.310Z,10.40
2022-12-29T02:31:30.041Z,10.40
2022-12-29T02:32:42.419Z,10.40
2022-12-29T02:34:02.492Z,10.40
2022-12-29T02:35:15.485Z,10.40
2022-12-29T02:36:33.032Z,10.40
2022-12-29T02:37:48.029Z,10.40
2022-12-29T02:39:04.041Z,10.40
2022-12-29T02:40:24.344Z,10.30
2022-12-29T02:41:35.029Z,10.30
2022-12-29T02:42:48.615Z,10.30
2022-12-29T02:43:59.490Z,10.30
2022-12-29T02:45:08.020Z,10.30
2022-12-29T02:46:24.765Z,10.30
2022-12-29T02:47:37.534Z,10.30
2022-12-29T02:48:48.258Z,10.30
2022-12-29T02:50:01.638Z,10.30
2022-12-29T02:51:10.446Z,10.30
2022-12-29T02:52:20.257Z,10.30
2022-12-29T02:53:39.671Z,10.30
2022-12-29T02:54:42.754Z,10.20
2022-12-29T02:55:51.146Z,10.20
2022-12-29T02:56:54.417Z,10.20
2022-12-29T02:58:20.023Z,10.20
2022-12-29T02:59:23.527Z,10.20
2022-12-29T03:00:27.430Z,10.20
2022-12-29T03:02:06.771Z,10.20
2022-12-29T03:03:26.890Z,10.20
2022-12-29T03:04:40.757Z,10.20
2022-12-29T03:06:10.550Z,10.20
2022-12-29T03:07:20.817Z,10.20
2022-12-29T03:08:33.938Z,10.20
2022-12-29T03:09:44.668Z,10.20
2022-12-29T03:10:58.153Z,10.20
2022-12-29T03:12:15.972Z,10.20
2022-12-29T03:13:47.712Z,10.20
2022-12-29T03:15:17.988Z,10.20
2022-12-29T03:16:29.546Z,10.20
2022-12-29T03:17:47.317Z,10.10
2022-12-29T03:19:00.845Z,10.10
2022-12-29T03:20:09.337Z,10.10
2022-12-29T03:21:45.008Z,10.10
2022-12-29T03:22:52.364Z,10.10
2022-12-29T03:23:58.317Z,10.10
2022-12-29T03:25:11.379Z,10.10
2022-12-29T03:26:19.524Z,10.00
2022-12-29T03:27:26.663Z,10.00
2022-12-29T03:28:36.747Z,10.00
2022-12-29T03:29:47.641Z,10.00
2022-12-29T03:30:51.922Z,10.00
2022-12-29T03:31:57.618Z,10.00
2022-12-29T03:33:06.973Z,10.00
2022-12-29T03:34:12.170Z,10.00
2022-12-29T03:35:21.314Z,10.00
2022-12-29T03:36:31.170Z,9.90
2022-12-29T03:37:39.748Z,9.90
2022-12-29T03:38:50.557Z,9.90
2022-12-29T03:39:53.511Z,9.90
2022-12-29T03:41:02.667Z,9.90
2022-12-29T03:42:12.554Z,9.90
2022-12-29T03:43:17.080Z,9.90
2022-12-29T03:44:22.289Z,9.90
2022-12-29T03:45:26.088Z,9.90
2022-12-29T03:46:28.842Z,9.90
2022-12-29T03:47:32.850Z,9.90
2022-12-29T03:48:37.868Z,9.90
2022-12-29T03:49:40.607Z,9.90
2022-12-29T03:50:45.048Z,9.90
2022-12-29T03:51:51.072Z,9.90
2022-12-29T03:52:55.751Z,9.90
2022-12-29T03:53:59.341Z,9.90
2022-12-29T03:55:02.893Z,9.90
2022-12-29T03:56:06.306Z,9.90
2022-12-29T03:57:11.520Z,9.90
2022-12-29T03:58:41.059Z,9.90
2022-12-29T03:59:47.284Z,9.90
2022-12-29T04:00:50.991Z,9.90
2022-12-29T04:01:55.265Z,9.90
2022-12-29T04:02:58.101Z,9.90
2022-12-29T04:04:03.102Z,9.90
2022-12-29T04:05:07.593Z,9.90
2022-12-29T04:06:11.271Z,9.90
2022-12-29T04:07:25.100Z,9.90
2022-12-29T04:08:30.889Z,9.80
2022-12-29T04:09:34.589Z,9.80
2022-12-29T04:10:38.378Z,9.80
2022-12-29T04:11:42.037Z,9.80
2022-12-29T04:12:47.548Z,9.80
2022-12-29T04:13:50.653Z,9.80
2022-12-29T04:15:06.756Z,9.80
2022-12-29T04:16:10.460Z,9.80
2022-12-29T04:17:14.768Z,9.80
2022-12-29T04:18:18.680Z,9.80
2022-12-29T04:19:24.255Z,9.80
2022-12-29T04:20:45.683Z,9.80
2022-12-29T04:21:49.779Z,9.80
2022-12-29T04:23:00.763Z,9.80
2022-12-29T04:24:07.586Z,9.80
2022-12-29T04:25:14.775Z,9.80
2022-12-29T04:26:19.611Z,9.80
2022-12-29T04:27:52.320Z,9.80
2022-12-29T04:29:11.586Z,9.90
2022-12-29T04:30:32.854Z,9.90
2022-12-29T04:31:52.557Z,9.90
2022-12-29T04:32:55.631Z,9.90
2022-12-29T04:34:00.861Z,9.90
2022-12-29T04:35:06.683Z,9.90
2022-12-29T04:36:11.175Z,9.90
2022-12-29T04:37:14.734Z,9.90
2022-12-29T04:38:18.916Z,9.90
2022-12-29T04:39:23.101Z,9.90
2022-12-29T04:40:26.692Z,9.90
2022-12-29T04:41:29.266Z,9.90
2022-12-29T04:42:32.991Z,9.90
2022-12-29T04:43:35.909Z,9.90
2022-12-29T04:45:12.841Z,9.90
2022-12-29T04:46:38.613Z,9.90
2022-12-29T04:47:45.888Z,9.90
2022-12-29T04:49:14.067Z,9.90
2022-12-29T04:50:29.483Z,9.90
2022-12-29T04:51:51.784Z,9.90
2022-12-29T04:52:55.560Z,9.90
2022-12-29T04:53:59.408Z,9.90
2022-12-29T04:55:04.210Z,9.90
2022-12-29T04:56:10.148Z,9.90
2022-12-29T04:57:12.955Z,9.90
2022-12-29T04:58:22.328Z,9.80
2022-12-29T04:59:25.453Z,9.80
2022-12-29T05:00:32.977Z,9.80
2022-12-29T05:01:35.614Z,9.80
2022-12-29T05:02:39.919Z,9.80
2022-12-29T05:03:42.848Z,9.80
2022-12-29T05:04:46.941Z,9.70
2022-12-29T05:05:53.887Z,9.70
2022-12-29T05:06:57.592Z,9.70
2022-12-29T05:08:00.417Z,9.70
2022-12-29T05:09:04.664Z,9.70
2022-12-29T05:10:08.737Z,9.60
2022-12-29T05:11:12.673Z,9.60
2022-12-29T05:12:15.418Z,9.60
2022-12-29T05:13:36.722Z,9.60
2022-12-29T05:14:39.792Z,9.60
2022-12-29T05:15:51.661Z,9.60
2022-12-29T05:16:54.423Z,9.60
2022-12-29T05:17:58.289Z,9.60
2022-12-29T05:19:01.022Z,9.60
2022-12-29T05:20:05.866Z,9.60
2022-12-29T05:21:11.916Z,9.60
2022-12-29T05:22:16.646Z,9.60
2022-12-29T05:23:22.456Z,9.60
2022-12-29T05:24:32.827Z,9.50
2022-12-29T05:25:37.535Z,9.50
2022-12-29T05:27:16.953Z,9.50
2022-12-29T05:28:29.298Z,9.50
2022-12-29T05:29:41.031Z,9.50
2022-12-29T05:30:45.332Z,9.50
2022-12-29T05:31:48.442Z,9.40
2022-12-29T05:32:52.088Z,9.40
2022-12-29T05:33:55.605Z,9.40
2022-12-29T05:34:59.304Z,9.40
2022-12-29T05:36:06.381Z,9.40
2022-12-29T05:37:12.135Z,9.40
2022-12-29T05:38:16.957Z,9.30
2022-12-29T05:39:22.373Z,9.30
2022-12-29T05:40:31.495Z,9.30
2022-12-29T05:41:37.935Z,9.30
2022-12-29T05:42:41.941Z,9.30
2022-12-29T05:43:53.785Z,9.30
2022-12-29T05:45:16.043Z,9.30
2022-12-29T05:46:29.380Z,9.30
2022-12-29T05:47:41.493Z,9.30
2022-12-29T05:49:07.020Z,9.20
2022-12-29T05:50:29.810Z,9.20
2022-12-29T05:51:44.457Z,9.20
2022-12-29T05:52:49.578Z,9.20
2022-12-29T05:53:52.725Z,9.20
2022-12-29T05:54:56.769Z,9.20
2022-12-29T05:56:01.624Z,9.20
2022-12-29T05:57:05.702Z,9.20
2022-12-29T05:58:09.708Z,9.20
2022-12-29T05:59:16.802Z,9.20
2022-12-29T06:00:20.397Z,9.20
2022-12-29T06:01:24.540Z,9.20
2022-12-29T06:02:27.410Z,9.20
2022-12-29T06:03:31.209Z,9.20
2022-12-29T06:04:33.935Z,9.20
2022-12-29T06:05:37.863Z,9.30
2022-12-29T06:06:41.482Z,9.20
2022-12-29T06:07:52.658Z,9.20
2022-12-29T06:08:55.284Z,9.20
2022-12-29T06:09:58.926Z,9.20
2022-12-29T06:11:01.899Z,9.20
2022-12-29T06:12:06.844Z,9.20
2022-12-29T06:13:10.022Z,9.20
2022-12-29T06:14:17.225Z,9.20
2022-12-29T06:15:19.959Z,9.20
2022-12-29T06:16:25.853Z,9.20
2022-12-29T06:17:31.649Z,9.20
2022-12-29T06:18:35.556Z,9.20
2022-12-29T06:19:38.203Z,9.20
2022-12-29T06:20:41.826Z,9.20
2022-12-29T06:21:45.683Z,9.20
2022-12-29T06:22:48.629Z,9.20
2022-12-29T06:23:54.623Z,9.20
2022-12-29T06:25:03.069Z,9.20
2022-12-29T06:26:09.264Z,9.20
2022-12-29T06:27:12.482Z,9.10
2022-12-29T06:28:17.557Z,9.10
2022-12-29T06:29:21.645Z,9.10
2022-12-29T06:30:25.162Z,9.10
2022-12-29T06:31:29.077Z,9.10
2022-12-29T06:32:31.693Z,9.10
2022-12-29T06:33:40.973Z,9.10
2022-12-29T06:34:45.678Z,9.10
2022-12-29T06:35:49.398Z,9.10
2022-12-29T06:36:52.182Z,9.00
2022-12-29T06:37:56.444Z,9.00
2022-12-29T06:39:00.379Z,9.00
2022-12-29T06:40:04.171Z,9.00
2022-12-29T06:41:19.470Z,9.00
2022-12-29T06:42:57.264Z,9.00
2022-12-29T06:44:17.568Z,9.00
2022-12-29T06:45:29.063Z,9.00
2022-12-29T06:46:33.033Z,9.00
2022-12-29T06:47:36.051Z,9.00
2022-12-29T06:48:39.754Z,9.00
2022-12-29T06:49:42.345Z,9.00
2022-12-29T06:50:45.856Z,9.00
2022-12-29T06:51:48.444Z,9.00
2022-12-29T06:52:52.097Z,9.00
2022-12-29T06:53:54.559Z,9.00
2022-12-29T06:55:00.005Z,9.00
2022-12-29T06:56:02.683Z,9.00
2022-12-29T06:57:06.515Z,9.00
2022-12-29T06:58:09.958Z,9.10
2022-12-29T06:59:13.826Z,9.10
2022-12-29T07:00:22.529Z,9.10
2022-12-29T07:01:26.620Z,9.10
2022-12-29T07:02:29.524Z,9.10
2022-12-29T07:03:33.432Z,9.10
2022-12-29T07:04:35.935Z,9.10
2022-12-29T07:05:39.545Z,9.10
2022-12-29T07:06:42.094Z,9.10
2022-12-29T07:07:45.828Z,9.10
2022-12-29T07:08:48.476Z,9.10
2022-12-29T07:09:52.067Z,9.10
2022-12-29T07:10:56.186Z,9.10
2022-12-29T07:11:59.911Z,9.10
2022-12-29T07:13:02.617Z,9.10
2022-12-29T07:14:06.364Z,9.10
2022-12-29T07:15:10.429Z,9.10
2022-12-29T07:16:14.063Z,9.00
2022-12-29T07:17:16.714Z,9.00
2022-12-29T07:18:20.400Z,9.00
2022-12-29T07:19:22.977Z,9.00
2022-12-29T07:20:27.368Z,9.00
2022-12-29T07:21:30.062Z,9.00
2022-12-29T07:22:33.644Z,8.90
2022-12-29T07:23:36.355Z,8.90
2022-12-29T07:24:39.820Z,8.90
2022-12-29T07:25:42.445Z,8.90
2022-12-29T07:26:47.514Z,8.80
2022-12-29T07:27:50.535Z,8.80
2022-12-29T07:28:53.972Z,8.80
2022-12-29T07:29:56.545Z,8.80
2022-12-29T07:31:00.216Z,8.80
2022-12-29T07:32:02.795Z,8.80
2022-12-29T07:33:06.386Z,8.80
2022-12-29T07:34:10.294Z,8.80
2022-12-29T07:35:13.955Z,8.80
2022-12-29T07:36:17.318Z,8.80
2022-12-29T07:37:21.050Z,8.80
2022-12-29T07:38:24.909Z,8.80
2022-12-29T07:39:27.448Z,8.70
2022-12-29T07:40:31.028Z,8.70
2022-12-29T07:41:33.894Z,8.80
2022-12-29T07:42:40.914Z,8.70
2022-12-29T07:43:49.872Z,8.80
2022-12-29T07:45:19.769Z,8.70
2022-12-29T07:46:54.999Z,8.80
2022-12-29T07:47:59.307Z,8.80
2022-12-29T07:49:03.077Z,8.70
2022-12-29T07:50:07.644Z,8.70
2022-12-29T07:51:12.189Z,8.70
2022-12-29T07:52:15.112Z,8.80
2022-12-29T07:53:18.968Z,8.80
2022-12-29T07:54:23.598Z,8.80
2022-12-29T07:55:27.955Z,8.80
2022-12-29T07:56:30.717Z,8.80
2022-12-29T07:57:34.521Z,8.80
2022-12-29T07:58:38.598Z,8.80
2022-12-29T07:59:42.404Z,8.80
2022-12-29T08:00:46.087Z,8.90
2022-12-29T08:01:49.643Z,8.90
2022-12-29T08:02:53.681Z,8.90
2022-12-29T08:03:57.668Z,8.90
2022-12-29T08:05:01.512Z,8.90
2022-12-29T08:06:04.667Z,8.90
2022-12-29T08:07:08.518Z,8.90
2022-12-29T08:08:11.085Z,8.90
2022-12-29T08:09:19.781Z,9.00
2022-12-29T08:10:26.074Z,9.00
2022-12-29T08:11:28.977Z,9.00
2022-12-29T08:12:32.747Z,9.00
2022-12-29T08:13:37.341Z,9.00
2022-12-29T08:14:41.045Z,9.10
2022-12-29T08:15:44.890Z,9.10
2022-12-29T08:16:48.136Z,9.10
2022-12-29T08:17:51.762Z,9.10
2022-12-29T08:18:54.439Z,9.10
2022-12-29T08:19:58.107Z,9.20
2022-12-29T08:21:04.171Z,9.20
2022-12-29T08:22:08.043Z,9.20
2022-12-29T08:23:10.715Z,9.20
2022-12-29T08:24:15.096Z,9.20
2022-12-29T08:25:20.568Z,9.20
2022-12-29T08:26:23.555Z,9.20
2022-12-29T08:27:28.958Z,9.30
2022-12-29T08:28:32.491Z,9.30
2022-12-29T08:29:37.541Z,9.30
2022-12-29T08:30:40.186Z,9.30
2022-12-29T08:31:44.172Z,9.30
2022-12-29T08:32:46.984Z,9.30
2022-12-29T08:33:50.583Z,9.30
2022-12-29T08:34:54.423Z,9.30
2022-12-29T08:36:02.689Z,9.30
2022-12-29T08:37:06.487Z,9.30
2022-12-29T08:38:12.357Z,9.30
2022-12-29T08:39:15.189Z,9.30
2022-12-29T08:40:18.869Z,9.30
2022-12-29T08:41:21.471Z,9.30
2022-12-29T08:42:26.204Z,9.30
2022-12-29T08:43:30.584Z,9.20
2022-12-29T08:44:34.170Z,9.20
2022-12-29T08:45:38.485Z,9.20
2022-12-29T08:46:42.212Z,9.20
2022-12-29T08:47:45.840Z,9.20
2022-12-29T08:48:48.544Z,9.20
2022-12-29T08:49:52.174Z,9.20
2022-12-29T08:50:56.089Z,9.10
2022-12-29T08:51:59.709Z,9.10
2022-12-29T08:53:02.406Z,9.10
2022-12-29T08:54:06.260Z,9.10
2022-12-29T08:55:10.153Z,9.10
2022-12-29T08:56:14.411Z,9.10
2022-12-29T08:57:25.202Z,9.10
2022-12-29T08:58:45.255Z,9.10
2022-12-29T08:59:48.152Z,9.10
2022-12-29T09:00:55.919Z,9.10
2022-12-29T09:01:59.988Z,9.10
2022-12-29T09:03:03.124Z,9.10
2022-12-29T09:04:16.217Z,9.10
2022-12-29T09:05:21.239Z,9.10
2022-12-29T09:06:24.297Z,9.20
2022-12-29T09:07:27.921Z,9.20
2022-12-29T09:08:30.666Z,9.20
2022-12-29T09:09:34.611Z,9.20
2022-12-29T09:10:37.959Z,9.20
2022-12-29T09:11:42.315Z,9.10
2022-12-29T09:12:46.267Z,9.10
2022-12-29T09:13:49.727Z,9.10
2022-12-29T09:14:53.439Z,9.10
2022-12-29T09:16:01.744Z,9.10
2022-12-29T09:17:23.096Z,9.00
2022-12-29T09:18:26.732Z,9.00
2022-12-29T09:19:29.439Z,9.00
2022-12-29T09:20:33.533Z,9.00
2022-12-29T09:21:37.768Z,9.00
2022-12-29T09:22:40.792Z,9.00
2022-12-29T09:23:44.350Z,8.90
2022-12-29T09:24:47.286Z,8.90
2022-12-29T09:25:51.064Z,8.90
2022-12-29T09:26:53.831Z,8.90
2022-12-29T09:27:59.388Z,8.90
2022-12-29T09:29:05.189Z,8.90
2022-12-29T09:30:13.064Z,8.90
2022-12-29T09:31:18.593Z,8.90
2022-12-29T09:32:23.688Z,8.90
2022-12-29T09:33:28.474Z,8.90
2022-12-29T09:34:34.587Z,8.90
2022-12-29T09:35:38.465Z,8.90
2022-12-29T09:36:42.166Z,8.90
2022-12-29T09:37:46.210Z,9.00
2022-12-29T09:38:49.835Z,9.00
2022-12-29T09:39:54.683Z,9.00
2022-12-29T09:41:06.942Z,8.90
2022-12-29T09:42:19.643Z,8.90
2022-12-29T09:43:55.072Z,8.90
2022-12-29T09:45:14.161Z,8.90
2022-12-29T09:46:25.676Z,8.90
2022-12-29T09:47:30.715Z,8.90
2022-12-29T09:48:38.910Z,8.90
2022-12-29T09:49:50.704Z,8.90
2022-12-29T09:51:03.198Z,8.90
2022-12-29T09:52:20.613Z,8.90
2022-12-29T09:53:32.695Z,8.90
2022-12-29T09:54:54.993Z,8.80
2022-12-29T09:56:04.783Z,8.80
2022-12-29T09:57:22.600Z,8.80
2022-12-29T09:58:35.144Z,8.80
2022-12-29T09:59:44.860Z,8.90
2022-12-29T10:00:55.928Z,8.80
2022-12-29T10:02:14.360Z,8.80
2022-12-29T10:03:21.564Z,8.80
2022-12-29T10:04:26.762Z,8.80
2022-12-29T10:05:41.016Z,8.90
2022-12-29T10:07:28.112Z,8.90
2022-12-29T10:08:40.011Z,8.90
2022-12-29T10:09:55.043Z,8.90
2022-12-29T10:11:07.547Z,8.90
2022-12-29T10:12:30.013Z,8.90
2022-12-29T10:13:55.988Z,9.00
2022-12-29T10:15:14.009Z,9.10
2022-12-29T10:16:24.794Z,9.10
2022-12-29T10:17:43.298Z,9.20
2022-12-29T10:19:33.111Z,9.20
2022-12-29T10:20:50.515Z,9.30
2022-12-29T10:22:11.511Z,9.30
2022-12-29T10:23:29.175Z,9.40
2022-12-29T10:24:33.919Z,9.50
2022-12-29T10:25:41.775Z,9.50
2022-12-29T10:26:48.845Z,9.50
2022-12-29T10:27:54.945Z,9.50
2022-12-29T10:29:04.535Z,9.50
2022-12-29T10:30:14.547Z,9.50
2022-12-29T10:31:23.980Z,9.50
2022-12-29T10:32:38.511Z,9.50
2022-12-29T10:33:45.303Z,9.50
2022-12-29T10:34:53.780Z,9.50
2022-12-29T10:35:57.880Z,9.50
2022-12-29T10:37:07.703Z,9.50
2022-12-29T10:38:21.551Z,9.50
2022-12-29T10:39:32.242Z,9.50
2022-12-29T10:40:44.738Z,9.50
2022-12-29T10:41:55.576Z,9.50
2022-12-29T10:43:00.715Z,9.50
2022-12-29T10:44:03.359Z,9.60
2022-12-29T10:45:14.023Z,9.60
2022-12-29T10:46:23.209Z,9.60
2022-12-29T10:47:30.368Z,9.60
2022-12-29T10:48:36.254Z,9.70
2022-12-29T10:49:44.825Z,9.70
2022-12-29T10:50:49.807Z,9.80
2022-12-29T10:51:56.791Z,9.90
2022-12-29T10:53:04.465Z,10.00
2022-12-29T10:54:15.224Z,10.10
2022-12-29T10:55:24.908Z,10.10
2022-12-29T10:56:35.047Z,10.20
2022-12-29T10:57:42.099Z,10.30
2022-12-29T10:58:49.893Z,10.30
2022-12-29T10:59:52.829Z,10.30
2022-12-29T11:00:57.678Z,10.30
2022-12-29T11:02:28.574Z,10.30
2022-12-29T11:03:55.325Z,10.30
2022-12-29T11:05:10.056Z,10.30
2022-12-29T11:06:21.198Z,10.50
2022-12-29T11:07:27.689Z,10.70
2022-12-29T11:08:38.467Z,11.00
2022-12-29T11:09:49.150Z,11.40
2022-12-29T11:11:02.934Z,11.70
2022-12-29T11:12:26.429Z,12.10
2022-12-29T11:14:19.393Z,12.40
2022-12-29T11:15:25.804Z,12.70
2022-12-29T11:16:35.454Z,12.90
2022-12-29T11:17:46.799Z,13.00
2022-12-29T11:18:52.536Z,13.10
2022-12-29T11:19:57.589Z,13.10
2022-12-29T11:21:03.968Z,13.10
2022-12-29T11:22:22.873Z,13.00
2022-12-29T11:23:34.559Z,12.90
2022-12-29T11:24:48.209Z,12.90
2022-12-29T11:26:20.171Z,12.70
2022-12-29T11:27:26.369Z,12.60
2022-12-29T11:28:33.060Z,12.50
2022-12-29T11:29:42.284Z,12.40
2022-12-29T11:30:45.321Z,12.30
2022-12-29T11:31:52.543Z,12.10
2022-12-29T11:33:00.582Z,12.00
2022-12-29T11:34:09.630Z,11.90
2022-12-29T11:35:31.424Z,11.80
2022-12-29T11:36:38.044Z,11.80
2022-12-29T11:37:43.575Z,11.70
2022-12-29T11:38:52.470Z,11.60
2022-12-29T11:40:02.385Z,11.60
2022-12-29T11:41:07.620Z,11.50
2022-12-29T11:42:20.041Z,11.60
2022-12-29T11:43:31.541Z,11.60
2022-12-29T11:44:44.462Z,11.70
2022-12-29T11:45:50.482Z,11.80
2022-12-29T11:46:55.421Z,11.90
2022-12-29T11:48:02.395Z,11.90
2022-12-29T11:49:08.634Z,11.90
2022-12-29T11:50:20.790Z,11.90
2022-12-29T11:51:27.087Z,11.80
2022-12-29T11:52:36.434Z,11.80
2022-12-29T11:53:48.949Z,11.70
2022-12-29T11:54:53.296Z,11.70
2022-12-29T11:56:00.893Z,11.60
2022-12-29T11:57:26.617Z,11.50
2022-12-29T11:58:33.994Z,11.40
2022-12-29T11:59:44.061Z,11.40
2022-12-29T12:00:51.091Z,11.30
2022-12-29T12:01:56.957Z,11.20
2022-12-29T12:03:04.265Z,11.20
2022-12-29T12:04:15.926Z,11.10
2022-12-29T12:05:28.871Z,11.10
2022-12-29T12:06:37.195Z,11.10
2022-12-29T12:07:43.877Z,11.00
2022-12-29T12:08:55.662Z,11.00
2022-12-29T12:10:07.468Z,11.00
2022-12-29T12:11:16.967Z,11.00
2022-12-29T12:12:26.614Z,10.90
2022-12-29T12:14:03.204Z,10.90
2022-12-29T12:15:45.336Z,10.80
2022-12-29T12:16:56.553Z,10.80
2022-12-29T12:18:09.175Z,10.80
2022-12-29T12:19:29.316Z,10.80
2022-12-29T12:22:30.798Z,10.80
2022-12-29T12:24:28.740Z,10.70
2022-12-29T12:29:05.952Z,10.70
2022-12-29T12:32:25.505Z,10.50
2022-12-29T12:34:26.220Z,10.50
2022-12-29T12:35:56.202Z,10.40
2022-12-29T12:37:43.668Z,10.40
2022-12-29T12:39:10.873Z,10.40
2022-12-29T12:40:46.203Z,10.30
2022-12-29T12:42:04.257Z,10.30
2022-12-29T12:43:39.215Z,10.30
2022-12-29T12:44:56.868Z,10.30
2022-12-29T12:46:31.288Z,10.50
2022-12-29T12:47:55.431Z,10.60
2022-12-29T12:49:38.258Z,10.80
2022-12-29T12:50:58.237Z,10.80
2022-12-29T12:52:15.460Z,10.90
2022-12-29T12:53:46.038Z,11.00
2022-12-29T12:55:10.191Z,11.00
2022-12-29T12:56:40.916Z,10.90
2022-12-29T12:57:58.147Z,10.90
2022-12-29T12:59:12.083Z,10.90
2022-12-29T13:00:19.185Z,10.90
2022-12-29T13:01:40.309Z,10.90
2022-12-29T13:03:02.044Z,10.90
2022-12-29T13:04:37.871Z,10.90
2022-12-29T13:09:45.273Z,10.80
2022-12-29T13:10:56.583Z,10.80
2022-12-29T13:12:18.506Z,10.80
2022-12-29T13:14:02.239Z,10.80
2022-12-29T13:15:21.452Z,10.80
2022-12-29T13:16:36.321Z,10.80
2022-12-29T13:17:47.933Z,10.80
2022-12-29T13:19:02.387Z,10.80
2022-12-29T13:20:23.373Z,10.80
2022-12-29T13:21:47.876Z,10.80
2022-12-29T13:23:10.608Z,10.70
2022-12-29T13:24:27.506Z,10.70
2022-12-29T13:25:44.330Z,10.70
2022-12-29T13:26:53.796Z,10.70
2022-12-29T13:28:07.571Z,10.60
2022-12-29T13:29:19.562Z,10.60
2022-12-29T13:30:26.537Z,10.60
2022-12-29T13:31:40.855Z,10.60
2022-12-29T13:32:59.440Z,10.60
2022-12-29T13:34:13.128Z,10.60
2022-12-29T13:35:44.427Z,10.60
2022-12-29T13:36:56.783Z,10.60
2022-12-29T13:38:06.754Z,10.60
2022-12-29T13:39:33.256Z,10.70
2022-12-29T13:41:03.989Z,10.70
2022-12-29T13:55:42.527Z,10.50
2022-12-29T13:57:05.219Z,10.50
2022-12-29T13:58:27.358Z,10.50
2022-12-29T14:00:24.747Z,10.40
2022-12-29T14:01:42.570Z,10.40
2022-12-29T14:03:13.855Z,10.30
2022-12-29T14:04:25.767Z,10.30
2022-12-29T14:05:32.789Z,10.10
2022-12-29T14:06:41.722Z,10.10
2022-12-29T14:07:45.035Z,10.00
2022-12-29T14:08:52.230Z,9.90
2022-12-29T14:09:58.073Z,9.80
2022-12-29T14:11:11.338Z,9.70
2022-12-29T14:12:35.320Z,9.60
2022-12-29T14:13:45.390Z,9.60
2022-12-29T14:14:48.793Z,9.50
2022-12-29T14:15:59.099Z,9.50
2022-12-29T14:17:15.229Z,9.40
2022-12-29T14:18:21.897Z,9.40
2022-12-29T14:19:30.341Z,9.30
2022-12-29T14:20:35.275Z,9.30
2022-12-29T14:21:40.229Z,9.20
2022-12-29T14:23:31.085Z,9.20
2022-12-29T14:26:46.003Z,9.10
2022-12-29T14:27:59.126Z,9.00
2022-12-29T14:29:45.233Z,9.00
2022-12-29T14:30:55.259Z,8.90
2022-12-29T14:31:59.155Z,8.80
2022-12-29T14:33:13.268Z,8.80
2022-12-29T14:34:33.001Z,8.70
2022-12-29T14:35:44.992Z,8.70
2022-12-29T14:36:57.838Z,8.60
2022-12-29T14:38:16.441Z,8.60
2022-12-29T14:39:39.309Z,8.60
2022-12-29T14:40:43.817Z,8.50
2022-12-29T14:41:47.985Z,8.50
2022-12-29T14:42:52.610Z,8.50
2022-12-29T14:44:20.717Z,8.50
2022-12-29T14:45:33.860Z,8.50
2022-12-29T14:47:02.527Z,8.50
2022-12-29T14:48:31.775Z,8.50
2022-12-29T14:49:44.869Z,8.50
2022-12-29T14:50:47.898Z,8.50
2022-12-29T14:51:54.558Z,8.50
2022-12-29T14:53:04.238Z,8.50
2022-12-29T14:54:52.136Z,8.60
2022-12-29T14:55:59.365Z,8.60
2022-12-29T14:57:06.633Z,8.60
2022-12-29T14:58:19.743Z,8.60
2022-12-29T14:59:25.069Z,8.60
2022-12-29T15:00:34.373Z,8.60
2022-12-29T15:01:44.514Z,8.60
2022-12-29T15:02:56.943Z,8.60
2022-12-29T15:04:06.481Z,8.70
2022-12-29T15:05:33.951Z,8.70
2022-12-29T15:06:38.246Z,8.70
2022-12-29T15:07:42.964Z,8.70
2022-12-29T15:08:52.493Z,8.70
2022-12-29T15:10:07.053Z,8.80
2022-12-29T15:11:16.449Z,8.80
2022-12-29T15:12:38.075Z,8.80
2022-12-29T15:13:44.418Z,8.80
2022-12-29T15:14:59.804Z,8.80
2022-12-29T15:16:02.947Z,8.80
2022-12-29T15:17:25.012Z,8.80
2022-12-29T15:18:31.412Z,8.80
2022-12-29T15:19:34.468Z,8.80
2022-12-29T15:20:38.799Z,8.80
2022-12-29T15:21:45.100Z,8.80
2022-12-29T15:22:52.600Z,8.80
2022-12-29T15:23:56.948Z,8.80
2022-12-29T15:25:01.332Z,8.90
2022-12-29T15:26:06.920Z,8.90
2022-12-29T15:27:17.500Z,8.90
2022-12-29T15:28:22.917Z,8.90
2022-12-29T15:29:40.837Z,8.90
2022-12-29T15:30:55.461Z,8.90
2022-12-29T15:32:00.066Z,8.90
2022-12-29T15:33:04.022Z,8.90
2022-12-29T15:34:31.835Z,8.90
2022-12-29T15:35:38.956Z,8.90
2022-12-29T15:36:43.196Z,8.90
2022-12-29T15:37:47.307Z,8.90
2022-12-29T15:38:54.564Z,8.90
2022-12-29T15:39:59.991Z,8.90
2022-12-29T15:41:09.361Z,8.90
2022-12-29T15:42:55.012Z,8.90
2022-12-29T15:44:14.398Z,8.90
2022-12-29T15:45:17.544Z,8.90
2022-12-29T15:46:21.657Z,8.90
2022-12-29T15:47:29.867Z,8.90
2022-12-29T15:48:34.665Z,8.90
2022-12-29T15:49:42.737Z,8.90
2022-12-29T15:51:15.231Z,8.90
2022-12-29T15:52:23.244Z,8.90